createdAt,value
2019-02-04T00:02:17.669Z,99201.52
2019-02-04T00:07:23.143Z,99218.36
2019-02-04T00:12:28.323Z,99220.56
2019-02-04T00:17:33.494Z,99222.78
2019-02-04T00:22:39.138Z,99220.39
2019-02-04T00:27:44.430Z,99227.55
2019-02-04T00:32:50.271Z,99234.79
2019-02-04T00:37:56.714Z,99236.56
2019-02-04T00:43:02.279Z,99238.96
2019-02-04T00:48:07.448Z,99255.42
2019-02-04T00:53:12.659Z,99262.05
2019-02-04T00:58:17.833Z,99265.00
2019-02-04T01:03:23.299Z,99275.29
2019-02-04T01:08:28.470Z,99289.48
2019-02-04T01:13:33.647Z,99297.63
2019-02-04T01:18:39.308Z,99303.88
2019-02-04T01:23:44.797Z,99311.77
2019-02-04T01:28:49.964Z,99313.89
2019-02-04T01:33:55.135Z,99320.48
2019-02-04T01:39:00.266Z,99327.14
2019-02-04T01:44:05.538Z,99334.11
2019-02-04T01:49:10.801Z,99337.03
2019-02-04T01:54:15.971Z,99338.13
2019-02-04T01:59:21.145Z,99343.42
2019-02-04T02:04:26.522Z,99350.23
2019-02-04T02:09:31.691Z,99356.20
2019-02-04T02:14:37.146Z,99363.88
2019-02-04T02:19:42.242Z,99360.45
2019-02-04T02:24:47.423Z,99363.29
2019-02-04T02:29:53.200Z,99365.62
2019-02-04T02:34:59.494Z,99373.75
2019-02-04T02:40:09.873Z,99374.71
2019-02-04T02:45:15.075Z,99383.16
2019-02-04T02:50:20.724Z,99387.50
2019-02-04T02:55:26.845Z,99389.74
2019-02-04T03:00:32.791Z,99399.62
2019-02-04T03:05:37.966Z,99403.66
2019-02-04T03:10:43.138Z,99415.09
2019-02-04T03:15:48.307Z,99427.08
2019-02-04T03:20:53.463Z,99436.98
2019-02-04T03:25:59.096Z,99439.55
2019-02-04T03:31:04.269Z,99446.62
2019-02-04T03:36:09.748Z,99447.55
2019-02-04T03:41:14.942Z,99452.52
2019-02-04T03:46:21.728Z,99466.27
2019-02-04T03:51:26.917Z,99463.98
2019-02-04T03:56:32.077Z,99470.47
2019-02-04T04:01:37.249Z,99475.20
2019-02-04T04:06:42.790Z,99487.12
2019-02-04T04:11:48.820Z,99484.60
2019-02-04T04:16:54.282Z,99493.87
2019-02-04T04:21:59.461Z,99489.90
2019-02-04T04:27:04.766Z,99492.88
2019-02-04T04:32:10.324Z,99504.74
2019-02-04T04:37:15.712Z,99502.33
2019-02-04T04:42:20.921Z,99502.35
2019-02-04T04:47:26.090Z,99513.52
2019-02-04T04:52:31.616Z,99516.69
2019-02-04T04:57:37.957Z,99518.55
2019-02-04T05:02:43.136Z,99512.19
2019-02-04T05:07:49.132Z,99509.62
2019-02-04T05:12:54.750Z,99519.65
2019-02-04T05:17:59.937Z,99526.59
2019-02-04T05:23:05.476Z,99534.83
2019-02-04T05:28:11.020Z,99539.20
2019-02-04T05:33:16.208Z,99549.31
2019-02-04T05:38:21.538Z,99546.27
2019-02-04T05:43:26.706Z,99541.86
2019-02-04T05:48:31.906Z,99548.73
2019-02-04T05:53:37.081Z,99553.20
2019-02-04T05:58:43.324Z,99562.77
2019-02-04T06:03:48.910Z,99555.05
2019-02-04T06:08:54.090Z,99566.55
2019-02-04T06:13:59.273Z,99560.63
2019-02-04T06:19:04.872Z,99569.70
2019-02-04T06:24:10.053Z,99567.78
2019-02-04T06:29:15.255Z,99566.52
2019-02-04T06:34:20.726Z,99572.71
2019-02-04T06:39:25.985Z,99579.67
2019-02-04T06:44:31.575Z,99573.83
2019-02-04T06:49:37.022Z,99589.20
2019-02-04T06:54:42.214Z,99581.81
2019-02-04T06:59:47.398Z,99599.56
2019-02-04T07:04:52.566Z,99606.77
2019-02-04T07:09:57.740Z,99611.69
2019-02-04T07:15:02.925Z,99611.77
2019-02-04T07:20:10.130Z,99617.58
2019-02-04T07:25:16.571Z,99624.34
2019-02-04T07:30:23.745Z,99620.73
2019-02-04T07:35:29.659Z,99634.33
2019-02-04T07:40:35.064Z,99632.76
2019-02-04T07:45:40.331Z,99636.51
2019-02-04T07:50:45.567Z,99628.73
2019-02-04T07:55:51.639Z,99629.92
2019-02-04T08:00:56.813Z,99630.23
2019-02-04T08:06:03.098Z,99632.92
2019-02-04T08:11:08.454Z,99636.59
2019-02-04T08:16:15.028Z,99638.30
2019-02-04T08:21:20.691Z,99633.09
2019-02-04T08:26:25.929Z,99640.20
2019-02-04T08:31:32.681Z,99649.80
2019-02-04T08:36:44.360Z,99641.31
2019-02-04T08:41:45.813Z,99646.78
2019-02-04T08:46:51.070Z,99644.94
2019-02-04T08:51:56.333Z,99644.80
2019-02-04T08:57:02.327Z,99652.11
2019-02-04T09:02:07.569Z,99644.25
2019-02-04T09:07:12.736Z,99631.14
2019-02-04T09:12:17.909Z,99636.50
2019-02-04T09:17:23.078Z,99633.30
2019-02-04T09:22:28.255Z,99626.05
2019-02-04T09:27:34.675Z,99633.70
2019-02-04T09:32:39.904Z,99629.89
2019-02-04T09:37:45.208Z,99633.96
2019-02-04T09:42:50.426Z,99629.66
2019-02-04T09:47:55.629Z,99630.99
2019-02-04T09:53:00.805Z,99638.02
2019-02-04T09:58:07.740Z,99640.30
2019-02-04T10:03:12.989Z,99640.68
2019-02-04T10:08:19.228Z,99647.45
2019-02-04T10:13:24.417Z,99635.73
2019-02-04T10:18:29.876Z,99630.16
2019-02-04T10:23:36.985Z,99638.47
2019-02-04T10:28:42.160Z,99633.44
2019-02-04T10:33:47.584Z,99622.74
2019-02-04T10:38:52.853Z,99613.80
2019-02-04T10:43:58.020Z,99605.67
2019-02-04T10:49:03.241Z,99601.81
2019-02-04T10:54:09.321Z,99586.23
2019-02-04T10:59:14.479Z,99587.88
2019-02-04T11:04:20.023Z,99583.70
2019-02-04T11:09:25.357Z,99579.80
2019-02-04T11:14:30.525Z,99572.28
2019-02-04T11:19:35.732Z,99564.47
2019-02-04T11:24:40.965Z,99564.69
2019-02-04T11:29:46.920Z,99560.52
2019-02-04T11:34:52.097Z,99564.84
2019-02-04T11:39:58.253Z,99555.86
2019-02-04T11:45:03.752Z,99549.17
2019-02-04T11:50:10.204Z,99553.86
2019-02-04T11:55:16.067Z,99551.21
2019-02-04T12:00:23.377Z,99548.52
2019-02-04T12:05:29.768Z,99535.82
2019-02-04T12:10:37.896Z,99534.17
2019-02-04T12:15:43.177Z,99533.91
2019-02-04T12:20:48.404Z,99525.68
2019-02-04T12:25:53.569Z,99517.53
2019-02-04T12:30:59.452Z,99514.16
2019-02-04T12:36:04.827Z,99514.63
2019-02-04T12:41:11.163Z,99515.52
2019-02-04T12:46:16.609Z,99507.30
2019-02-04T12:51:32.958Z,99499.28
2019-02-04T12:56:28.650Z,99504.08
2019-02-04T13:01:33.979Z,99500.06
2019-02-04T13:06:39.147Z,99498.42
2019-02-04T13:11:44.316Z,99496.11
2019-02-04T13:16:49.503Z,99497.06
2019-02-04T13:21:54.667Z,99485.42
2019-02-04T13:27:00.137Z,99480.63
2019-02-04T13:32:06.582Z,99478.05
2019-02-04T13:37:12.090Z,99474.17
2019-02-04T13:42:17.255Z,99470.02
2019-02-04T13:47:22.829Z,99467.30
2019-02-04T13:52:27.997Z,99459.98
2019-02-04T13:57:33.517Z,99456.70
2019-02-04T14:02:38.980Z,99463.06
2019-02-04T14:07:44.635Z,99454.81
2019-02-04T14:12:49.870Z,99454.84
2019-02-04T14:17:55.039Z,99443.15
2019-02-04T14:23:00.211Z,99451.86
2019-02-04T14:28:05.573Z,99450.95
2019-02-04T14:33:11.240Z,99450.31
2019-02-04T14:38:16.386Z,99450.09
2019-02-04T14:43:52.651Z,99452.47
2019-02-04T14:49:40.837Z,99466.24
2019-02-04T14:55:37.144Z,99466.48
2019-02-04T15:01:08.186Z,99460.06
2019-02-04T15:06:29.152Z,99463.60
2019-02-04T15:12:20.825Z,99460.87
2019-02-04T15:17:50.918Z,99466.40
2019-02-04T15:23:20.657Z,99472.00
2019-02-04T15:28:51.499Z,99468.83
2019-02-04T15:34:14.059Z,99474.08
2019-02-04T15:39:58.665Z,99480.20
2019-02-04T15:45:35.951Z,99472.64
2019-02-04T15:51:34.475Z,99475.45
2019-02-04T15:56:40.377Z,99473.50
2019-02-04T16:01:46.141Z,99474.79
2019-02-04T16:06:51.636Z,99471.28
2019-02-04T16:11:57.819Z,99450.70
2019-02-04T16:17:05.892Z,99448.40
2019-02-04T16:22:11.367Z,99446.52
2019-02-04T16:27:16.883Z,99460.43
2019-02-04T16:32:22.427Z,99453.59
2019-02-04T16:37:28.056Z,99450.91
2019-02-04T16:42:33.287Z,99454.84
2019-02-04T16:47:38.844Z,99453.68
2019-02-04T16:52:44.402Z,99447.52
2019-02-04T16:57:49.572Z,99445.30
2019-02-04T17:02:55.565Z,99442.13
2019-02-04T17:08:00.735Z,99443.30
2019-02-04T17:13:05.937Z,99450.88
2019-02-04T17:18:11.172Z,99453.95
2019-02-04T17:23:22.507Z,99441.77
2019-02-04T17:28:26.952Z,99441.19
2019-02-04T17:33:32.920Z,99431.72
2019-02-04T17:38:39.002Z,99424.84
2019-02-04T17:43:45.789Z,99427.09
2019-02-04T17:48:51.421Z,99427.69
2019-02-04T17:53:56.675Z,99422.13
2019-02-04T17:59:02.579Z,99414.06
2019-02-04T18:04:08.434Z,99421.05
2019-02-04T18:09:14.719Z,99429.22
2019-02-04T18:14:19.937Z,99423.06
2019-02-04T18:19:25.473Z,99411.83
2019-02-04T18:24:31.575Z,99425.43
2019-02-04T18:29:37.036Z,99426.40
2019-02-04T18:34:42.557Z,99419.41
2019-02-04T18:39:48.716Z,99422.12
2019-02-04T18:44:54.601Z,99426.40
2019-02-04T18:49:59.914Z,99423.30
2019-02-04T18:55:07.252Z,99435.14
2019-02-04T19:00:14.947Z,99439.77
2019-02-04T19:05:20.643Z,99435.96
2019-02-04T19:10:27.397Z,99438.56
2019-02-04T19:15:32.915Z,99438.91
2019-02-04T19:20:40.559Z,99437.39
2019-02-04T19:25:48.034Z,99433.48
2019-02-04T19:31:15.494Z,99440.08
2019-02-04T19:36:23.283Z,99447.55
2019-02-04T19:41:30.815Z,99444.95
2019-02-04T19:46:38.923Z,99452.37
2019-02-04T19:51:47.549Z,99448.69
2019-02-04T19:56:55.582Z,99451.16
2019-02-04T20:02:03.225Z,99446.91
2019-02-04T20:07:10.715Z,99446.45
2019-02-04T20:12:17.005Z,99452.46
2019-02-04T20:17:24.765Z,99460.27
2019-02-04T20:22:32.086Z,99448.09
2019-02-04T20:27:39.168Z,99442.04
2019-02-04T20:32:47.506Z,99448.41
2019-02-04T20:37:54.984Z,99436.45
2019-02-04T20:43:02.365Z,99430.80
2019-02-04T20:48:11.356Z,99443.47
2019-02-04T20:53:17.876Z,99438.52
2019-02-04T20:58:25.376Z,99439.23
2019-02-04T21:03:32.764Z,99441.00
2019-02-04T21:08:38.621Z,99443.47
2019-02-04T21:13:44.479Z,99441.80
2019-02-04T21:18:50.472Z,99432.10
2019-02-04T21:23:55.805Z,99428.20
2019-02-04T21:29:02.884Z,99433.52
2019-02-04T21:34:08.364Z,99434.70
2019-02-04T21:39:13.805Z,99437.09
2019-02-04T21:44:18.983Z,99428.33
2019-02-04T21:49:24.211Z,99436.51
2019-02-04T21:54:29.383Z,99432.23
2019-02-04T21:59:34.582Z,99433.66
2019-02-04T22:04:39.785Z,99411.78
2019-02-04T22:09:45.025Z,99415.11
2019-02-04T22:14:50.641Z,99425.64
2019-02-04T22:19:56.090Z,99409.44
2019-02-04T22:25:01.641Z,99410.27
2019-02-04T22:30:10.697Z,99411.20
2019-02-04T22:35:16.241Z,99407.30
2019-02-04T22:40:26.241Z,99411.82
2019-02-04T22:45:31.399Z,99404.14
2019-02-04T22:50:37.696Z,99398.92
2019-02-04T22:55:44.114Z,99408.38
2019-02-04T23:01:27.073Z,99412.03
2019-02-04T23:06:33.624Z,99408.01
2019-02-04T23:11:39.194Z,99408.84
2019-02-04T23:16:45.840Z,99398.19
2019-02-04T23:21:51.057Z,99391.22
2019-02-04T23:26:56.313Z,99374.17
2019-02-04T23:32:01.947Z,99386.73
2019-02-04T23:37:07.109Z,99377.95
2019-02-04T23:42:12.827Z,99395.70
2019-02-04T23:47:18.040Z,99391.18
2019-02-04T23:52:23.245Z,99385.73
2019-02-04T23:57:28.806Z,99378.75
